Time;durP1;ratioP1;P1;durP2;ratioP2;P2;SDS_P1;SDS_P2;PMS_P1;PMS_P2;Temp;Humidity;BMP_temperature;BMP_pressure;BME280_temperature;BME280_humidity;BME280_pressure;Samples;Min_cycle;Max_cycle;Signal;HPM_P1;HPM_P2
2022/01/21 00:03:30;;;;;;;3.17;1.35;;;;;;;6.48;46.36;99390.66;1862943;104;25879;-74
2022/01/21 00:06:25;;;;;;;3.27;1.30;;;;;;;6.48;46.34;99403.98;1842274;103;25987;-80
2022/01/21 00:10:17;;;;;;;2.45;1.17;;;;;;;6.47;46.29;99411.31;1836017;106;25907;-78
2022/01/21 00:14:13;;;;;;;;;;;;;;;;;;;;;
2022/01/21 00:33:40;;;;;;;2.10;1.25;;;;;;;6.42;46.14;99443.57;1914887;100;25906;-79
2022/01/21 00:44:35;;;;;;;4.00;1.02;;;;;;;6.40;46.14;99445.23;1880604;104;25728;-78
2022/01/21 00:47:56;;;;;;;2.35;1.10;;;;;;;6.38;46.11;99440.45;1863799;106;26024;-78
2022/01/21 00:51:38;;;;;;;1.60;1.03;;;;;;;6.38;46.07;99442.63;1866552;103;25385;-75
2022/01/21 00:55:24;;;;;;;;;;;;;;;;;;;;;
2022/01/21 00:58:46;;;;;;;3.95;2.08;;;;;;;6.38;46.02;99440.45;1838312;106;26140;-79
2022/01/21 01:02:33;;;;;;;2.25;1.17;;;;;;;6.37;46.01;99439.55;1889427;102;26119;-79
2022/01/21 01:06:14;;;;;;;2.50;1.32;;;;;;;6.37;46.02;99436.96;1961953;99;25887;-76
2022/01/21 01:30:33;;;;;;;2.75;1.27;;;;;;;6.27;45.64;99432.81;1893885;103;25878;-79
2022/01/21 01:34:22;;;;;;;;;;;;;;;;;;;;;
2022/01/21 01:41:39;;;;;;;1.70;1.02;;;;;;;6.23;45.53;99432.28;1786092;110;25610;-78
2022/01/21 01:52:27;;;;;;;3.27;1.10;;;;;;;6.22;45.47;99430.12;1742527;112;25813;-79
2022/01/21 01:56:03;;;;;;;1.30;0.90;;;;;;;6.22;45.48;99424.95;1743398;108;26578;-78
2022/01/21 01:59:34;;;;;;;2.20;1.07;;;;;;;6.23;45.46;99427.11;1745392;111;25987;-77
2022/01/21 02:03:06;;;;;;;2.87;0.90;;;;;;;6.23;45.41;99430.56;1743106;108;25946;-77
2022/01/21 02:06:29;;;;;;;2.12;0.95;;;;;;;6.23;45.36;99427.98;1759521;109;25841;-78
2022/01/21 02:09:53;;;;;;;2.87;0.97;;;;;;;6.23;45.35;99422.80;1756743;112;26007;-75
2022/01/21 02:13:21;;;;;;;2.15;1.25;;;;;;;6.23;45.37;99421.52;1783311;108;25907;-79
2022/01/21 02:24:18;;;;;;;1.95;1.32;;;;;;;6.24;45.28;99419.80;1801804;107;25973;-77
2022/01/21 02:27:51;;;;;;;0.98;0.53;;;;;;;6.25;45.29;99415.97;1838710;107;25858;-79
2022/01/21 02:31:20;;;;;;;2.15;1.00;;;;;;;6.26;45.29;99414.25;1836999;107;25804;-77
2022/01/21 02:34:44;;;;;;;1.55;0.65;;;;;;;6.26;45.28;99415.55;1862041;104;25666;-77
2022/01/21 02:38:08;;;;;;;3.27;1.05;;;;;;;6.27;45.29;99418.58;2118923;91;25833;-79
2022/01/21 02:41:31;;;;;;;2.25;0.98;;;;;;;6.26;45.26;99416.41;2124820;92;26092;-78
2022/01/21 02:44:59;;;;;;;3.10;1.07;;;;;;;6.26;45.26;99422.02;2108186;91;25761;-79
2022/01/21 02:48:24;;;;;;;5.13;1.00;;;;;;;6.24;45.25;99440.50;2128909;93;25826;-75
2022/01/21 02:52:02;;;;;;;1.17;0.70;;;;;;;6.23;45.25;99432.28;2169202;90;25839;-78
2022/01/21 02:55:27;;;;;;;4.00;1.00;;;;;;;6.22;45.27;99428.83;2163747;88;25677;-77
2022/01/21 02:58:59;;;;;;;1.22;1.00;;;;;;;6.21;45.25;99432.65;2143507;90;25908;-77
2022/01/21 03:02:19;;;;;;;2.40;1.00;;;;;;;6.19;45.24;99429.17;2237068;84;25690;-76
2022/01/21 03:05:51;;;;;;;2.07;1.17;;;;;;;6.14;45.12;99427.73;2342796;82;34708;-77
2022/01/21 03:09:35;;;;;;;2.87;1.10;;;;;;;6.14;45.12;99427.73;2372678;83;25582;-77
2022/01/21 03:13:01;;;;;;;1.30;0.95;;;;;;;6.12;45.23;99437.19;2372226;82;25741;-78
2022/01/21 03:16:37;;;;;;;2.47;1.42;;;;;;;6.11;45.23;99429.84;2372424;82;25681;-79
2022/01/21 03:19:58;;;;;;;2.22;1.22;;;;;;;6.08;45.28;99432.35;2372438;82;25795;-75
2022/01/21 03:23:30;;;;;;;2.67;1.03;;;;;;;6.06;45.28;99436.59;2372224;82;25638;-78
2022/01/21 03:26:54;;;;;;;3.33;1.20;;;;;;;6.04;45.30;99421.47;2372088;83;25704;-78
2022/01/21 03:30:18;;;;;;;2.12;1.15;;;;;;;6.03;45.32;99435.64;2372118;82;25653;-78
2022/01/21 03:33:59;;;;;;;;;;;;;;;;;;;;;
2022/01/21 03:37:11;;;;;;;1.10;0.60;;;;;;;5.99;45.30;99435.98;2369129;83;25789;-78
2022/01/21 03:40:42;;;;;;;4.95;0.88;;;;;;;5.98;45.34;99447.59;2370979;82;25722;-77
2022/01/21 03:44:07;;;;;;;3.25;1.52;;;;;;;5.96;45.36;99441.50;2372304;82;25603;-78
2022/01/21 03:47:31;;;;;;;2.47;1.27;;;;;;;5.95;45.37;99447.09;2351531;82;25643;-78
2022/01/21 03:50:52;;;;;;;2.90;1.05;;;;;;;5.96;45.39;99437.61;2351787;83;25785;-78
2022/01/21 03:54:16;;;;;;;2.70;1.00;;;;;;;5.96;45.39;99433.31;2372120;83;25753;-75
2022/01/21 03:57:39;;;;;;;3.08;0.90;;;;;;;5.96;45.39;99435.89;2371145;83;25907;-79
2022/01/21 04:01:09;;;;;;;1.82;1.05;;;;;;;5.96;45.39;99433.73;2372125;82;25186;-77
2022/01/21 04:04:38;;;;;;;3.37;0.75;;;;;;;5.98;45.37;99441.12;2351283;83;25946;-78
2022/01/21 04:08:14;;;;;;;4.17;1.22;;;;;;;5.96;45.37;99444.08;2368481;82;25813;-75
2022/01/21 04:11:35;;;;;;;1.15;0.80;;;;;;;5.97;45.38;99448.41;2346650;83;25804;-76
2022/01/21 04:15:04;;;;;;;2.87;1.33;;;;;;;5.96;45.32;99451.42;2368758;82;25634;-76
2022/01/21 04:18:35;;;;;;;;;;;;;;;5.96;45.31;99448.83;2236813;87;25687;-75
2022/01/21 04:22:08;;;;;;;2.58;0.90;;;;;;;5.97;45.33;99451.87;2237747;87;25681;-77
2022/01/21 04:25:31;;;;;;;2.87;0.90;;;;;;;5.97;45.35;99461.34;2232520;83;25728;-79
2022/01/21 04:29:15;;;;;;;2.08;0.90;;;;;;;5.97;45.35;99457.47;2239070;86;25879;-77
2022/01/21 04:33:08;;;;;;;2.98;1.45;;;;;;;5.98;45.34;99454.06;2171141;90;26132;-75
2022/01/21 04:37:07;;;;;;;1.85;1.12;;;;;;;5.99;45.34;99458.39;2175423;89;25669;-76
2022/01/21 04:48:47;;;;;;;2.10;0.90;;;;;;;6.01;45.35;99464.50;2064649;94;25835;-76
2022/01/21 04:52:16;;;;;;;3.58;0.78;;;;;;;6.02;45.32;99464.95;2062750;94;25816;-74
2022/01/21 04:55:58;;;;;;;1.87;0.93;;;;;;;6.03;45.33;99474.03;2081563;92;25761;-75
2022/01/21 04:59:40;;;;;;;3.33;1.00;;;;;;;6.04;45.33;99472.31;2122270;91;26362;-79
2022/01/21 05:03:11;;;;;;;1.82;0.72;;;;;;;6.06;45.35;99475.83;2122671;91;25951;-78
2022/01/21 05:06:41;;;;;;;1.67;0.85;;;;;;;6.06;45.32;99478.00;2037272;95;25762;-76
2022/01/21 05:10:07;;;;;;;1.72;1.02;;;;;;;6.08;45.33;99472.45;1946168;100;25802;-78
2022/01/21 05:17:11;;;;;;;3.62;1.27;;;;;;;6.10;45.30;99472.06;1920874;98;25808;-77
2022/01/21 05:21:06;;;;;;;1.77;1.10;;;;;;;6.10;45.30;99491.47;2003309;97;25812;-77
2022/01/21 05:24:52;;;;;;;1.72;0.88;;;;;;;6.11;45.29;99495.83;1986581;98;25790;-75
2022/01/21 05:32:59;;;;;;;;;;;;;;;;;;;;;
2022/01/21 05:37:01;;;;;;;2.33;0.80;;;;;;;6.13;45.29;99492.84;1984404;98;25740;-78
2022/01/21 05:41:00;;;;;;;2.90;1.17;;;;;;;6.14;45.33;99495.02;1991707;98;25957;-79
2022/01/21 05:49:15;;;;;;;;;;;;;;;;;;;;;
2022/01/21 05:56:50;;;;;;;1.62;1.40;;;;;;;6.15;45.33;99517.07;1895090;101;25949;-79
2022/01/21 06:01:01;;;;;;;2.17;0.80;;;;;;;6.17;45.36;99514.94;1894287;104;25954;-80
2022/01/21 06:04:50;;;;;;;2.00;0.78;;;;;;;6.18;45.32;99522.75;2003276;97;25650;-78
2022/01/21 06:08:19;;;;;;;1.35;0.75;;;;;;;6.18;45.34;99515.41;2003300;97;25344;-79
2022/01/21 06:11:58;;;;;;;4.20;1.02;;;;;;;6.17;45.34;99518.39;2003610;96;25773;-79
2022/01/21 06:15:32;;;;;;;0.93;0.60;;;;;;;6.18;45.37;99526.64;2122127;92;25756;-78
2022/01/21 06:19:00;;;;;;;1.42;0.88;;;;;;;6.19;45.37;99522.33;2129045;91;25821;-79
2022/01/21 06:22:56;;;;;;;4.33;0.82;;;;;;;6.19;45.37;99525.80;2183132;88;25818;-76
2022/01/21 06:26:46;;;;;;;2.12;1.00;;;;;;;6.20;45.38;99527.95;2196516;88;25732;-77
2022/01/21 06:30:22;;;;;;;2.75;0.80;;;;;;;6.21;45.38;99518.05;2182554;89;25739;-78
2022/01/21 06:34:12;;;;;;;1.25;0.65;;;;;;;6.20;45.38;99514.59;2183146;89;25829;-76
2022/01/21 06:37:58;;;;;;;2.33;0.70;;;;;;;6.21;45.42;99528.02;2138410;91;26206;-80
2022/01/21 06:41:49;;;;;;;;;;;;;;;;;;;;;
2022/01/21 06:45:19;;;;;;;2.35;0.70;;;;;;;6.23;45.44;99544.87;2077146;90;25752;-80
2022/01/21 06:49:02;;;;;;;1.42;0.80;;;;;;;6.22;45.43;99545.29;2074969;93;25793;-78
2022/01/21 06:52:31;;;;;;;1.85;0.93;;;;;;;6.23;45.46;99545.73;2074721;93;26092;-77
2022/01/21 06:56:11;;;;;;;2.30;0.60;;;;;;;6.24;45.45;99560.42;2072897;91;25709;-79
2022/01/21 06:59:37;;;;;;;2.30;0.78;;;;;;;6.26;45.46;99556.60;2163050;88;25775;-78
2022/01/21 07:03:08;;;;;;;4.35;0.72;;;;;;;6.26;45.44;99558.77;2181842;88;25745;-76
2022/01/21 07:06:29;;;;;;;4.42;1.05;;;;;;;6.29;45.43;99569.63;2179740;88;25897;-76
2022/01/21 07:09:57;;;;;;;3.47;0.80;;;;;;;6.33;45.42;99574.92;2207347;89;25692;-80
2022/01/21 07:13:28;;;;;;;1.77;0.80;;;;;;;6.37;45.39;99583.64;2142676;89;25798;-78
2022/01/21 07:16:57;;;;;;;2.02;1.35;;;;;;;6.38;45.36;99588.02;2140595;91;25773;-77
2022/01/21 07:20:33;;;;;;;3.12;0.68;;;;;;;6.42;45.38;99574.73;2137268;89;26469;-78
2022/01/21 07:24:15;;;;;;;1.17;0.70;;;;;;;6.47;45.36;99592.13;2193597;82;26010;-77
2022/01/21 07:27:57;;;;;;;4.17;1.10;;;;;;;6.54;45.33;99591.45;2356909;82;25891;-79
2022/01/21 07:31:23;;;;;;;1.57;0.90;;;;;;;6.65;45.35;99601.22;2362933;83;25693;-78
2022/01/21 07:34:55;;;;;;;2.35;1.10;;;;;;;6.72;45.22;99592.38;2339027;82;25837;-78
2022/01/21 07:38:25;;;;;;;1.95;0.70;;;;;;;6.82;45.19;99601.27;2362058;82;26210;-78
2022/01/21 07:41:49;;;;;;;1.40;0.70;;;;;;;6.91;45.12;99604.50;2362722;83;25696;-78
2022/01/21 07:45:17;;;;;;;4.37;1.07;;;;;;;6.98;45.00;99602.09;2362984;83;25546;-78
2022/01/21 07:48:58;;;;;;;2.10;1.20;;;;;;;7.06;44.88;99612.25;2303851;83;25614;-79
2022/01/21 07:52:18;;;;;;;1.45;1.20;;;;;;;7.12;44.82;99605.06;2263411;83;25700;-79
2022/01/21 07:55:45;;;;;;;2.35;1.65;;;;;;;7.42;44.90;99604.03;2258136;86;26019;-78
2022/01/21 07:59:23;;;;;;;3.95;2.20;;;;;;;9.95;43.82;99609.66;2300291;85;33013;-79
2022/01/21 08:03:19;;;;;;;;;;;;;;;;;;;;;
2022/01/21 08:06:19;;;;;;;4.03;2.05;;;;;;;14.29;39.23;99601.44;2293153;84;25739;-78
2022/01/21 08:10:03;;;;;;;3.40;3.10;;;;;;;15.67;37.48;99611.08;2333036;83;30881;-78
2022/01/21 08:13:40;;;;;;;3.05;2.85;;;;;;;16.95;35.79;99620.54;2313528;84;25753;-77
2022/01/21 08:17:20;;;;;;;10.03;9.43;;;;;;;18.30;34.03;99626.16;2314791;85;25742;-83
2022/01/21 08:20:43;;;;;;;4.73;3.40;;;;;;;19.31;32.69;99621.31;2284188;85;25745;-78
2022/01/21 08:24:11;;;;;;;13.95;13.25;;;;;;;20.00;31.41;99639.40;2282200;86;25734;-78
2022/01/21 08:27:31;;;;;;;4.45;1.72;;;;;;;21.26;30.35;99635.73;2288115;85;25845;-77
2022/01/21 08:31:23;;;;;;;2.60;1.22;;;;;;;22.13;28.28;99636.31;2289145;85;25951;-76
2022/01/21 08:34:53;;;;;;;2.75;0.95;;;;;;;20.34;27.40;99633.18;2286095;85;25578;-75
2022/01/21 08:38:21;;;;;;;2.05;1.50;;;;;;;18.44;27.47;99632.47;2289983;85;26011;-75
2022/01/21 08:41:45;;;;;;;;;;;;;;;17.00;27.80;99638.44;2291869;85;25806;-75
2022/01/21 08:45:16;;;;;;;3.92;1.30;;;;;;;15.88;28.10;99637.14;2289179;85;25771;-75
2022/01/21 08:48:39;;;;;;;5.17;1.25;;;;;;;14.90;28.70;99641.83;2289758;85;25961;-74
2022/01/21 08:52:18;;;;;;;4.47;1.30;;;;;;;14.04;29.19;99647.80;2299099;85;25688;-74
2022/01/21 08:55:45;;;;;;;2.70;1.20;;;;;;;13.29;29.67;99647.87;2303819;85;26436;-76
2022/01/21 08:59:17;;;;;;;3.02;1.07;;;;;;;12.65;30.25;99661.20;2290829;85;25772;-76
2022/01/21 09:02:51;;;;;;;;;;;;;;;12.03;30.76;99653.95;2306500;85;25875;-78
2022/01/21 09:06:37;;;;;;;1.92;1.10;;;;;;;11.48;31.20;99668.77;2312251;85;25774;-76
2022/01/21 09:10:02;;;;;;;4.05;1.27;;;;;;;10.85;34.12;99675.09;2353677;83;25712;-77
2022/01/21 09:13:39;;;;;;;2.17;1.17;;;;;;;10.85;34.12;99675.09;2379467;81;25654;-77
2022/01/21 09:17:04;;;;;;;4.12;1.47;;;;;;;10.85;34.54;99685.52;2379203;81;25712;-76
2022/01/21 09:20:40;;;;;;;2.60;1.00;;;;;;;10.71;34.85;99683.19;2290992;85;25982;-76
2022/01/21 09:24:04;;;;;;;4.17;1.10;;;;;;;10.54;35.23;99681.25;2316190;84;25986;-79
2022/01/21 09:27:27;;;;;;;5.25;1.35;;;;;;;10.40;35.58;99684.98;2256723;86;25875;-77
2022/01/21 09:30:52;;;;;;;2.85;1.40;;;;;;;10.28;35.86;99693.06;2199780;89;26082;-78
2022/01/21 09:34:23;;;;;;;4.55;0.80;;;;;;;10.14;36.21;99684.59;2176054;90;25677;-77
2022/01/21 09:37:54;;;;;;;2.10;1.27;;;;;;;10.05;36.51;99694.86;2199611;90;25790;-78
2022/01/21 09:41:26;;;;;;;2.52;1.20;;;;;;;9.97;36.75;99686.52;2130584;91;25771;-78
2022/01/21 09:45:00;;;;;;;1.87;0.85;;;;;;;9.88;36.91;99697.65;2170285;91;25907;-77
2022/01/21 09:48:51;;;;;;;3.05;1.42;;;;;;;9.77;37.14;99682.30;2129088;91;25671;-80
2022/01/21 09:52:13;;;;;;;2.45;1.30;;;;;;;9.67;37.37;99692.56;2130162;92;25746;-75
2022/01/21 09:55:42;;;;;;;3.70;1.27;;;;;;;9.62;37.59;99692.05;2176179;86;25719;-74
2022/01/21 09:59:22;;;;;;;2.12;1.32;;;;;;;9.56;37.82;99684.14;2147793;89;25937;-75
2022/01/21 10:03:05;;;;;;;;;;;;;;;;;;;;;
2022/01/21 10:06:34;;;;;;;2.92;1.40;;;;;;;9.52;38.14;99682.31;2149369;89;25736;-76
2022/01/21 10:10:00;;;;;;;2.27;1.00;;;;;;;9.49;38.31;99681.86;2096342;92;25797;-77
2022/01/21 10:13:21;;;;;;;1.70;1.20;;;;;;;9.50;38.47;99671.89;2129712;92;25827;-75
2022/01/21 10:16:43;;;;;;;2.85;1.25;;;;;;;9.75;38.56;99663.17;2192462;88;25785;-75
2022/01/21 10:23:43;;;;;;;2.37;1.20;;;;;;;12.28;38.02;99659.77;2135343;90;25805;-76
2022/01/21 10:27:17;;;;;;;;;;;;;;;;;;;;;
2022/01/21 10:30:52;;;;;;;4.90;1.77;;;;;;;15.77;35.32;99649.08;2142800;90;25861;-73
2022/01/21 10:37:46;;;;;;;3.60;1.52;;;;;;;18.14;31.58;99650.64;2190183;89;25848;-75
2022/01/21 10:41:16;;;;;;;2.22;1.50;;;;;;;18.87;30.07;99645.66;2189508;90;25754;-75
2022/01/21 10:44:45;;;;;;;1.87;1.35;;;;;;;19.61;28.86;99647.88;2169933;90;25779;-74
2022/01/21 10:48:08;;;;;;;7.17;1.95;;;;;;;20.33;28.32;99665.41;2190023;88;25782;-74
2022/01/21 10:51:39;;;;;;;4.97;1.42;;;;;;;21.27;29.27;99673.27;2168437;90;25754;-74
2022/01/21 10:55:52;;;;;;;5.78;1.50;;;;;;;22.25;29.85;99668.25;2188855;90;25661;-80
2022/01/21 10:59:15;;;;;;;9.33;1.75;;;;;;;23.04;29.99;99667.08;2188944;90;25836;-79
2022/01/21 11:02:48;;;;;;;6.47;2.17;;;;;;;23.60;30.40;99660.42;2238223;85;25307;-77
2022/01/21 11:06:23;;;;;;;10.72;2.95;;;;;;;23.84;30.36;99658.56;2312961;84;26068;-77
2022/01/21 11:09:50;;;;;;;21.57;3.30;;;;;;;23.97;30.29;99666.42;2313193;83;25769;-77
2022/01/21 11:13:24;;;;;;;24.80;3.70;;;;;;;23.82;30.56;99659.08;2311318;84;25773;-78
2022/01/21 11:16:50;;;;;;;21.60;3.65;;;;;;;23.75;31.35;99667.78;2299739;85;25674;-78
2022/01/21 11:20:30;;;;;;;17.10;2.60;;;;;;;23.34;32.10;99658.82;2304099;84;25810;-76
2022/01/21 11:24:01;;;;;;;10.45;2.98;;;;;;;23.03;33.30;99653.86;2242349;87;25786;-76
2022/01/21 11:27:33;;;;;;;14.95;2.40;;;;;;;23.15;34.44;99671.11;2225206;87;25737;-74
2022/01/21 11:30:57;;;;;;;17.23;2.62;;;;;;;23.05;34.60;99682.13;2228357;88;25758;-74
2022/01/21 11:34:36;;;;;;;;;;;;;;;;;;;;;
2022/01/21 11:42:26;;;;;;;8.80;1.85;;;;;;;22.84;34.19;99670.94;2130637;92;26438;-79
2022/01/21 11:47:00;;;;;;;3.62;1.95;;;;;;;23.12;34.21;99668.56;2004786;98;25377;-82
2022/01/21 11:49:37;;;;;;;11.43;2.10;;;;;;;;;;1993074;97;25981;-79
2022/01/21 11:53:06;;;;;;;4.20;1.40;;;;;;;22.97;33.73;99663.40;1992068;99;25840;-74
2022/01/21 11:56:42;;;;;;;8.25;1.52;;;;;;;22.52;33.87;99683.65;2027843;94;25914;-77
2022/01/21 12:00:17;;;;;;;4.47;1.50;;;;;;;22.27;33.94;99677.01;2055632;94;25966;-79
2022/01/21 12:03:56;;;;;;;2.95;1.52;;;;;;;22.07;33.94;99672.40;1959150;99;26030;-75
2022/01/21 12:07:55;;;;;;;3.60;1.77;;;;;;;21.79;33.79;99695.47;1925009;101;25814;-82
2022/01/21 12:11:37;;;;;;;2.27;1.32;;;;;;;21.36;33.35;99675.21;1925711;101;35495;-76
2022/01/21 12:15:04;;;;;;;2.65;1.60;;;;;;;20.58;31.44;99664.27;1927725;101;25736;-74
2022/01/21 12:19:12;;;;;;;4.58;1.22;;;;;;;19.44;30.10;99664.14;1948165;100;25835;-73
2022/01/21 12:22:40;;;;;;;4.25;1.47;;;;;;;18.28;29.55;99670.16;1945225;100;25785;-74
2022/01/21 12:26:31;;;;;;;2.98;1.82;;;;;;;17.10;29.28;99665.52;1949824;98;26440;-74
2022/01/21 12:30:14;;;;;;;2.80;1.37;;;;;;;16.18;29.23;99676.72;2092863;92;26098;-74
2022/01/21 12:34:05;;;;;;;9.60;1.25;;;;;;;15.25;29.34;99665.66;2099804;92;26333;-74
2022/01/21 12:38:04;;;;;;;2.35;1.57;;;;;;;14.44;29.59;99686.58;2092014;92;25766;-73
2022/01/21 12:41:54;;;;;;;;;;;;;;;;;;;;;
2022/01/21 12:45:14;;;;;;;2.77;1.57;;;;;;;13.21;30.19;99678.80;2121520;90;26137;-76
2022/01/21 12:48:35;;;;;;;3.50;1.80;;;;;;;12.65;30.50;99688.66;2195970;86;25807;-77
2022/01/21 12:52:27;;;;;;;3.08;1.65;;;;;;;12.19;30.87;99678.44;2199050;89;25700;-73
2022/01/21 12:55:55;;;;;;;3.47;1.65;;;;;;;12.44;33.13;99683.34;2202813;89;25752;-74
2022/01/21 12:59:38;;;;;;;3.37;1.50;;;;;;;12.52;32.29;99679.05;2205174;89;25853;-75
2022/01/21 13:07:14;;;;;;;3.12;1.35;;;;;;;12.34;32.35;99687.66;2204008;89;25800;-73
2022/01/21 13:10:44;;;;;;;2.47;1.55;;;;;;;11.94;32.05;99698.28;2224632;87;25732;-74
2022/01/21 13:18:00;;;;;;;2.87;1.87;;;;;;;11.68;31.93;99693.73;2288260;85;25721;-75
2022/01/21 13:21:21;;;;;;;2.77;1.62;;;;;;;11.37;32.14;99703.00;2216975;89;25979;-73
2022/01/21 13:28:31;;;;;;;2.40;1.30;;;;;;;10.90;32.38;99699.50;2083384;94;25348;-77
2022/01/21 13:32:07;;;;;;;5.08;1.47;;;;;;;10.74;32.60;99711.91;2083455;95;26133;-78
2022/01/21 13:35:33;;;;;;;6.35;1.45;;;;;;;10.66;32.84;99723.95;2082647;95;25981;-75
2022/01/21 13:39:24;;;;;;;3.22;1.57;;;;;;;10.59;32.98;99709.53;2083860;95;25749;-75
2022/01/21 13:42:46;;;;;;;4.97;2.40;;;;;;;10.51;33.13;99716.83;2081285;93;25806;-75
2022/01/21 13:46:15;;;;;;;3.15;1.90;;;;;;;10.39;33.28;99713.20;2050877;93;25824;-75
2022/01/21 13:49:34;;;;;;;2.30;1.42;;;;;;;10.33;33.47;99719.63;2073248;94;25387;-75
2022/01/21 13:53:07;;;;;;;8.00;2.47;;;;;;;10.26;33.65;99724.31;2090927;94;31377;-74
2022/01/21 13:56:27;;;;;;;4.28;1.60;;;;;;;10.20;33.83;99724.62;2133572;90;25962;-74
2022/01/21 13:59:51;;;;;;;3.80;1.62;;;;;;;10.14;34.01;99737.98;2167653;91;29686;-81
2022/01/21 14:03:35;;;;;;;2.08;1.25;;;;;;;10.08;35.22;99713.58;2168067;89;25796;-76
2022/01/21 14:07:09;;;;;;;4.78;1.50;;;;;;;10.15;35.64;99734.52;2167728;89;25763;-76
2022/01/21 14:10:37;;;;;;;3.80;1.63;;;;;;;10.12;35.72;99736.20;2143443;89;25723;-76
2022/01/21 14:14:05;;;;;;;6.97;2.87;;;;;;;10.03;35.76;99729.14;2107782;92;25890;-75
2022/01/21 14:17:31;;;;;;;2.08;1.52;;;;;;;9.99;36.00;99731.66;2176135;87;25777;-75
2022/01/21 14:21:14;;;;;;;4.03;1.72;;;;;;;9.99;36.61;99729.05;2226077;88;25773;-75
2022/01/21 14:24:44;;;;;;;3.12;1.67;;;;;;;10.00;37.14;99734.30;2247008;88;26210;-77
2022/01/21 14:28:09;;;;;;;3.08;1.60;;;;;;;9.96;37.21;99735.55;2247451;86;25767;-75
2022/01/21 14:31:43;;;;;;;3.92;1.95;;;;;;;9.88;37.03;99744.52;2328469;82;25720;-77
2022/01/21 14:39:21;;;;;;;3.60;1.47;;;;;;;9.84;37.92;99750.09;2280970;86;26481;-75
2022/01/21 14:42:54;;;;;;;3.33;1.32;;;;;;;9.83;38.29;99748.36;2280835;86;25925;-75
2022/01/21 14:46:28;;;;;;;2.80;1.77;;;;;;;9.83;38.83;99756.16;2204977;89;25711;-76
2022/01/21 14:50:05;;;;;;;3.40;1.80;;;;;;;9.82;39.26;99755.72;2208028;89;25730;-75
2022/01/21 14:53:25;;;;;;;6.20;1.80;;;;;;;9.80;39.73;99761.75;2207659;89;25752;-75
2022/01/21 14:57:01;;;;;;;2.83;1.77;;;;;;;9.77;39.99;99761.27;2208098;89;34832;-74
2022/01/21 15:00:41;;;;;;;3.50;1.60;;;;;;;9.73;40.12;99760.77;2208096;89;25782;-75
2022/01/21 15:04:17;;;;;;;8.48;2.40;;;;;;;9.73;40.81;99759.47;2206871;89;25304;-79
2022/01/21 15:07:49;;;;;;;6.67;2.30;;;;;;;10.13;44.84;99752.30;2172402;90;25929;-80
2022/01/21 15:11:57;;;;;;;6.30;2.77;;;;;;;10.70;42.84;99766.14;2145270;91;25747;-79
2022/01/21 15:19:51;;;;;;;10.03;2.77;;;;;;;10.43;42.59;99758.42;2182758;89;25701;-80
2022/01/21 15:23:38;;;;;;;5.33;2.65;;;;;;;10.33;42.82;99759.14;2165651;89;25851;-79
2022/01/21 15:27:23;;;;;;;9.35;4.03;;;;;;;10.23;43.08;99764.61;2167207;90;25778;-78
2022/01/21 15:31:20;;;;;;;8.60;3.17;;;;;;;10.17;43.31;99771.89;2167367;89;25769;-77
2022/01/21 15:35:33;;;;;;;6.10;2.40;;;;;;;10.11;43.51;99777.00;2196132;87;26632;-79
2022/01/21 15:39:22;;;;;;;5.80;2.55;;;;;;;9.97;42.58;99777.22;2227711;87;25827;-79
2022/01/21 15:42:44;;;;;;;3.30;2.35;;;;;;;9.74;41.80;99770.75;2213606;87;26451;-80
2022/01/21 15:46:36;;;;;;;3.40;1.85;;;;;;;9.49;41.18;99767.72;2168578;89;25781;-79
2022/01/21 15:50:23;;;;;;;6.62;3.05;;;;;;;9.32;40.80;99771.31;2105122;89;25825;-79
2022/01/21 15:53:46;;;;;;;4.12;2.20;;;;;;;9.14;40.39;99772.25;2100066;92;25863;-80
2022/01/21 15:57:16;;;;;;;7.07;2.37;;;;;;;9.02;39.96;99781.13;2088044;94;27764;-78
2022/01/21 16:00:38;;;;;;;3.30;1.70;;;;;;;8.91;39.88;99775.28;2107960;90;25925;-80
2022/01/21 16:04:16;;;;;;;5.27;1.50;;;;;;;8.89;39.88;99772.19;2131228;91;29059;-79
2022/01/21 16:07:42;;;;;;;3.35;1.30;;;;;;;8.89;39.92;99770.89;2177222;90;25721;-79
2022/01/21 16:11:06;;;;;;;4.00;1.90;;;;;;;8.90;40.00;99783.03;2168964;87;25855;-78
2022/01/21 16:14:37;;;;;;;6.47;2.15;;;;;;;8.89;40.07;99778.27;2120364;93;25868;-79
2022/01/21 16:18:13;;;;;;;2.72;1.92;;;;;;;8.88;40.11;99788.21;2087725;94;25789;-77
2022/01/21 16:21:50;;;;;;;2.60;1.50;;;;;;;8.87;40.21;99790.34;2097095;93;25865;-80
2022/01/21 16:25:14;;;;;;;4.33;1.50;;;;;;;8.86;40.26;99786.42;2124378;92;25901;-79
2022/01/21 16:28:37;;;;;;;3.35;1.82;;;;;;;8.84;40.36;99786.41;2136775;91;25602;-79
2022/01/21 16:32:12;;;;;;;4.92;1.70;;;;;;;8.83;40.42;99785.05;2120317;91;26105;-78
2022/01/21 16:35:36;;;;;;;4.25;1.20;;;;;;;8.81;40.49;99778.54;2077651;93;25927;-79
2022/01/21 16:39:04;;;;;;;4.83;1.40;;;;;;;8.79;40.54;99784.11;2103232;94;28711;-79
2022/01/21 16:42:24;;;;;;;2.58;1.50;;;;;;;8.77;40.58;99787.09;2103140;94;25771;-80
2022/01/21 16:45:48;;;;;;;3.47;1.70;;;;;;;8.75;40.64;99788.37;2140999;87;34871;-79
2022/01/21 16:49:19;;;;;;;3.37;1.35;;;;;;;8.72;40.72;99778.34;2312044;84;25305;-79
2022/01/21 16:53:13;;;;;;;2.62;1.07;;;;;;;8.71;40.73;99778.77;2325210;84;25800;-81
2022/01/21 16:56:46;;;;;;;2.77;1.90;;;;;;;8.68;40.75;99776.52;2309429;85;26037;-80
2022/01/21 17:00:38;;;;;;;3.50;1.60;;;;;;;8.65;40.79;99786.42;2207399;87;26202;-78
2022/01/21 17:04:16;;;;;;;3.40;1.40;;;;;;;8.62;40.82;99781.16;2165961;89;25752;-80
2022/01/21 17:07:51;;;;;;;4.58;1.47;;;;;;;8.60;40.88;99785.42;2156502;90;25822;-79
2022/01/21 17:11:35;;;;;;;2.67;1.40;;;;;;;8.57;40.88;99785.78;2165186;88;25858;-79
2022/01/21 17:15:15;;;;;;;3.80;1.25;;;;;;;8.54;40.89;99785.72;2178714;88;25858;-79
2022/01/21 17:22:18;;;;;;;5.62;1.77;;;;;;;8.48;41.00;99797.73;2051250;95;26237;-79
2022/01/21 17:25:42;;;;;;;2.67;1.23;;;;;;;8.47;41.05;99802.88;2067863;95;29057;-79
2022/01/21 17:29:18;;;;;;;2.65;1.20;;;;;;;8.45;41.09;99796.37;2069236;89;26011;-79
2022/01/21 17:33:17;;;;;;;1.87;1.55;;;;;;;8.45;41.17;99800.27;2068102;94;26084;-80
2022/01/21 17:37:18;;;;;;;1.57;1.20;;;;;;;8.44;41.21;99795.92;1930968;100;25959;-78
2022/01/21 17:45:11;;;;;;;3.80;1.87;;;;;;;8.39;41.32;99784.53;1859839;104;25894;-77
2022/01/21 17:48:36;;;;;;;2.22;1.47;;;;;;;8.38;41.32;99782.79;1862954;104;25976;-78
2022/01/21 17:56:34;;;;;;;3.50;1.42;;;;;;;8.33;41.40;99783.05;1877364;102;25805;-77
2022/01/21 18:04:04;;;;;;;3.08;1.75;;;;;;;8.29;41.50;99767.83;1945348;101;25835;-77
2022/01/21 18:07:36;;;;;;;2.55;1.40;;;;;;;8.27;41.59;99766.94;1930080;101;26555;-76
2022/01/21 18:11:23;;;;;;;3.55;0.90;;;;;;;8.27;41.71;99775.16;1906874;103;25833;-76
2022/01/21 18:15:20;;;;;;;2.58;1.92;;;;;;;8.24;41.75;99778.55;1898732;102;25865;-77
2022/01/21 18:19:44;;;;;;;1.95;1.35;;;;;;;8.22;41.74;99776.33;1920294;101;25836;-77
2022/01/21 18:23:34;;;;;;;1.35;0.90;;;;;;;8.20;41.74;99771.92;2012112;97;25906;-77
2022/01/21 18:27:26;;;;;;;2.07;1.30;;;;;;;8.17;41.80;99774.48;2055858;92;25917;-79
2022/01/21 18:31:32;;;;;;;2.08;1.20;;;;;;;8.14;41.85;99780.47;2139774;92;25911;-78
2022/01/21 18:38:53;;;;;;;2.87;1.57;;;;;;;8.07;41.92;99795.45;1962796;99;26529;-78
2022/01/21 18:42:28;;;;;;;2.00;1.30;;;;;;;8.03;41.93;99783.21;2040995;95;26033;-78
2022/01/21 18:46:11;;;;;;;2.10;1.35;;;;;;;8.00;41.94;99788.36;2026991;96;26154;-79
2022/01/21 18:50:08;;;;;;;2.20;1.02;;;;;;;7.97;41.97;99781.79;2041784;95;25803;-79
2022/01/21 18:57:15;;;;;;;2.47;1.37;;;;;;;7.88;42.02;99781.13;1971068;99;25921;-78
2022/01/21 19:01:20;;;;;;;3.72;1.65;;;;;;;7.86;42.01;99780.63;1894570;103;25849;-76
2022/01/21 19:05:11;;;;;;;3.47;1.05;;;;;;;7.82;42.04;99791.35;1930221;101;25543;-78
2022/01/21 19:09:03;;;;;;;2.65;1.50;;;;;;;7.78;42.03;99795.59;1896582;101;25795;-79
2022/01/21 19:12:42;;;;;;;2.85;1.22;;;;;;;7.74;42.08;99795.06;1852309;106;25777;-77
2022/01/21 19:16:12;;;;;;;3.52;1.57;;;;;;;7.72;42.12;99797.16;1872443;100;25605;-79
2022/01/21 19:19:46;;;;;;;3.25;1.62;;;;;;;7.69;42.18;99791.45;1851842;105;25761;-79
2022/01/21 19:23:12;;;;;;;2.10;1.52;;;;;;;7.67;42.23;99796.17;1847135;105;25701;-77
2022/01/21 19:30:49;;;;;;;3.40;1.22;;;;;;;7.63;42.28;99803.39;1892011;103;25763;-77
2022/01/21 19:34:23;;;;;;;2.85;1.20;;;;;;;7.60;42.30;99798.16;2022639;97;25788;-77
2022/01/21 19:37:50;;;;;;;2.15;1.25;;;;;;;7.57;42.32;99809.31;2018421;95;25680;-79
2022/01/21 19:45:07;;;;;;;5.03;1.70;;;;;;;7.53;42.37;99820.45;1999868;94;25604;-78
2022/01/21 19:48:41;;;;;;;3.27;1.50;;;;;;;7.51;42.40;99829.48;2036160;97;25756;-79
2022/01/21 19:52:07;;;;;;;2.13;1.30;;;;;;;7.50;42.43;99824.27;2055425;96;25645;-78